sensor_id;sensor_type;location;lat;lon;timestamp;temperature;humidity
45983;DHT22;31711;47.158;7.346;2023-08-06T00:00:50;16.40;99.90
45983;DHT22;31711;47.158;7.346;2023-08-06T00:03:16;16.40;99.90
45983;DHT22;31711;47.158;7.346;2023-08-06T00:05:42;16.40;99.90
45983;DHT22;31711;47.158;7.346;2023-08-06T00:08:09;16.40;99.90
45983;DHT22;31711;47.158;7.346;2023-08-06T00:10:35;16.40;99.90
45983;DHT22;31711;47.158;7.346;2023-08-06T00:13:01;16.40;99.90
45983;DHT22;31711;47.158;7.346;2023-08-06T00:15:27;16.30;99.90
45983;DHT22;31711;47.158;7.346;2023-08-06T00:17:53;16.30;99.90
45983;DHT22;31711;47.158;7.346;2023-08-06T00:20:19;16.30;99.90
45983;DHT22;31711;47.158;7.346;2023-08-06T00:22:45;16.10;99.90
45983;DHT22;31711;47.158;7.346;2023-08-06T00:25:11;15.90;99.90
45983;DHT22;31711;47.158;7.346;2023-08-06T00:27:37;15.80;99.90
45983;DHT22;31711;47.158;7.346;2023-08-06T00:30:04;15.70;99.90
45983;DHT22;31711;47.158;7.346;2023-08-06T00:32:30;15.70;99.90
45983;DHT22;31711;47.158;7.346;2023-08-06T00:34:56;15.60;99.90
45983;DHT22;31711;47.158;7.346;2023-08-06T00:37:22;15.40;99.90
45983;DHT22;31711;47.158;7.346;2023-08-06T00:39:48;15.30;99.90
45983;DHT22;31711;47.158;7.346;2023-08-06T00:42:14;15.30;99.90
45983;DHT22;31711;47.158;7.346;2023-08-06T00:44:42;15.20;99.90
45983;DHT22;31711;47.158;7.346;2023-08-06T00:47:08;15.10;99.90
45983;DHT22;31711;47.158;7.346;2023-08-06T00:49:36;15.10;99.90
45983;DHT22;31711;47.158;7.346;2023-08-06T00:52:04;15.10;99.90
45983;DHT22;31711;47.158;7.346;2023-08-06T00:54:31;15.10;99.90
45983;DHT22;31711;47.158;7.346;2023-08-06T00:57:00;15.10;99.90
45983;DHT22;31711;47.158;7.346;2023-08-06T00:59:27;15.10;99.90
45983;DHT22;31711;47.158;7.346;2023-08-06T01:01:53;15.10;99.90
45983;DHT22;31711;47.158;7.346;2023-08-06T01:04:19;15.20;99.90
45983;DHT22;31711;47.158;7.346;2023-08-06T01:06:48;15.30;99.90
45983;DHT22;31711;47.158;7.346;2023-08-06T01:12:55;15.40;99.90
45983;DHT22;31711;47.158;7.346;2023-08-06T01:15:31;15.50;99.90
45983;DHT22;31711;47.158;7.346;2023-08-06T01:17:58;15.50;99.90
45983;DHT22;31711;47.158;7.346;2023-08-06T01:20:29;15.50;99.90
45983;DHT22;31711;47.158;7.346;2023-08-06T01:22:57;15.50;99.90
45983;DHT22;31711;47.158;7.346;2023-08-06T01:25:32;15.50;99.90
45983;DHT22;31711;47.158;7.346;2023-08-06T01:28:16;15.50;99.90
45983;DHT22;31711;47.158;7.346;2023-08-06T01:30:44;15.50;99.90
45983;DHT22;31711;47.158;7.346;2023-08-06T01:33:16;15.60;99.90
45983;DHT22;31711;47.158;7.346;2023-08-06T01:35:46;15.60;99.90
45983;DHT22;31711;47.158;7.346;2023-08-06T01:38:18;15.60;99.90
45983;DHT22;31711;47.158;7.346;2023-08-06T01:40:44;15.60;99.90
45983;DHT22;31711;47.158;7.346;2023-08-06T01:43:10;15.60;99.90
45983;DHT22;31711;47.158;7.346;2023-08-06T01:45:37;15.60;99.90
45983;DHT22;31711;47.158;7.346;2023-08-06T01:48:03;15.60;99.90
45983;DHT22;31711;47.158;7.346;2023-08-06T01:50:29;15.70;99.90
45983;DHT22;31711;47.158;7.346;2023-08-06T01:52:55;15.70;99.90
45983;DHT22;31711;47.158;7.346;2023-08-06T01:55:24;15.70;99.90
45983;DHT22;31711;47.158;7.346;2023-08-06T01:57:50;15.60;99.90
45983;DHT22;31711;47.158;7.346;2023-08-06T02:00:16;15.60;99.90
45983;DHT22;31711;47.158;7.346;2023-08-06T02:02:42;15.60;99.90
45983;DHT22;31711;47.158;7.346;2023-08-06T02:05:08;15.60;99.90
45983;DHT22;31711;47.158;7.346;2023-08-06T02:07:34;15.60;99.90
45983;DHT22;31711;47.158;7.346;2023-08-06T02:10:00;15.60;99.90
45983;DHT22;31711;47.158;7.346;2023-08-06T02:12:26;15.50;99.90
45983;DHT22;31711;47.158;7.346;2023-08-06T02:14:51;15.60;99.90
45983;DHT22;31711;47.158;7.346;2023-08-06T02:17:17;15.60;99.90
45983;DHT22;31711;47.158;7.346;2023-08-06T02:19:43;15.50;99.90
45983;DHT22;31711;47.158;7.346;2023-08-06T02:22:09;15.50;99.90
45983;DHT22;31711;47.158;7.346;2023-08-06T02:24:35;15.40;99.90
45983;DHT22;31711;47.158;7.346;2023-08-06T02:27:01;15.50;99.90
45983;DHT22;31711;47.158;7.346;2023-08-06T02:29:30;15.40;99.90
45983;DHT22;31711;47.158;7.346;2023-08-06T02:31:56;15.50;99.90
45983;DHT22;31711;47.158;7.346;2023-08-06T02:34:22;15.50;99.90
45983;DHT22;31711;47.158;7.346;2023-08-06T02:36:48;15.50;99.90
45983;DHT22;31711;47.158;7.346;2023-08-06T02:39:14;15.60;99.90
45983;DHT22;31711;47.158;7.346;2023-08-06T02:41:39;15.60;99.90
45983;DHT22;31711;47.158;7.346;2023-08-06T02:44:06;15.50;99.90
45983;DHT22;31711;47.158;7.346;2023-08-06T02:46:34;15.50;99.90
45983;DHT22;31711;47.158;7.346;2023-08-06T02:49:00;15.40;99.90
45983;DHT22;31711;47.158;7.346;2023-08-06T02:51:26;15.50;99.90
45983;DHT22;31711;47.158;7.346;2023-08-06T02:53:51;15.40;99.90
45983;DHT22;31711;47.158;7.346;2023-08-06T02:56:17;15.40;99.90
45983;DHT22;31711;47.158;7.346;2023-08-06T02:58:43;15.50;99.90
45983;DHT22;31711;47.158;7.346;2023-08-06T03:01:09;15.40;99.90
45983;DHT22;31711;47.158;7.346;2023-08-06T03:03:35;15.50;99.90
45983;DHT22;31711;47.158;7.346;2023-08-06T03:06:01;15.50;99.90
45983;DHT22;31711;47.158;7.346;2023-08-06T03:08:28;15.50;99.90
45983;DHT22;31711;47.158;7.346;2023-08-06T03:10:54;15.50;99.90
45983;DHT22;31711;47.158;7.346;2023-08-06T03:13:20;15.40;99.90
45983;DHT22;31711;47.158;7.346;2023-08-06T03:16:13;15.40;99.90
45983;DHT22;31711;47.158;7.346;2023-08-06T03:18:39;15.50;99.90
45983;DHT22;31711;47.158;7.346;2023-08-06T03:21:05;15.50;99.90
45983;DHT22;31711;47.158;7.346;2023-08-06T03:23:31;15.50;99.90
45983;DHT22;31711;47.158;7.346;2023-08-06T03:26:06;15.50;99.90
45983;DHT22;31711;47.158;7.346;2023-08-06T03:28:32;15.50;99.90
45983;DHT22;31711;47.158;7.346;2023-08-06T03:31:04;15.50;99.90
45983;DHT22;31711;47.158;7.346;2023-08-06T03:33:30;15.50;99.90
45983;DHT22;31711;47.158;7.346;2023-08-06T03:35:57;15.50;99.90
45983;DHT22;31711;47.158;7.346;2023-08-06T03:38:23;15.30;99.90
45983;DHT22;31711;47.158;7.346;2023-08-06T03:40:49;15.30;99.90
45983;DHT22;31711;47.158;7.346;2023-08-06T03:43:15;15.30;99.90
45983;DHT22;31711;47.158;7.346;2023-08-06T03:45:41;15.20;99.90
45983;DHT22;31711;47.158;7.346;2023-08-06T03:48:08;15.10;99.90
45983;DHT22;31711;47.158;7.346;2023-08-06T03:50:34;14.90;99.90
45983;DHT22;31711;47.158;7.346;2023-08-06T03:53:00;14.90;99.90
45983;DHT22;31711;47.158;7.346;2023-08-06T03:55:26;14.70;99.90
45983;DHT22;31711;47.158;7.346;2023-08-06T03:57:52;14.50;99.90
45983;DHT22;31711;47.158;7.346;2023-08-06T04:00:18;14.30;99.90
45983;DHT22;31711;47.158;7.346;2023-08-06T04:02:44;14.10;99.90
45983;DHT22;31711;47.158;7.346;2023-08-06T04:05:10;14.00;99.90
45983;DHT22;31711;47.158;7.346;2023-08-06T04:07:36;13.90;99.90
45983;DHT22;31711;47.158;7.346;2023-08-06T04:10:03;13.80;99.90
45983;DHT22;31711;47.158;7.346;2023-08-06T04:12:30;13.70;99.90
45983;DHT22;31711;47.158;7.346;2023-08-06T04:14:58;13.60;99.90
45983;DHT22;31711;47.158;7.346;2023-08-06T04:17:24;13.50;99.90
45983;DHT22;31711;47.158;7.346;2023-08-06T04:19:51;13.50;99.90
45983;DHT22;31711;47.158;7.346;2023-08-06T04:22:18;13.50;99.90
45983;DHT22;31711;47.158;7.346;2023-08-06T04:24:44;13.50;99.90
45983;DHT22;31711;47.158;7.346;2023-08-06T04:27:11;13.50;99.90
45983;DHT22;31711;47.158;7.346;2023-08-06T04:29:38;13.40;99.90
45983;DHT22;31711;47.158;7.346;2023-08-06T04:32:06;13.50;99.90
45983;DHT22;31711;47.158;7.346;2023-08-06T04:34:33;13.50;99.90
45983;DHT22;31711;47.158;7.346;2023-08-06T04:36:59;13.50;99.90
45983;DHT22;31711;47.158;7.346;2023-08-06T04:39:25;13.40;99.90
45983;DHT22;31711;47.158;7.346;2023-08-06T04:41:51;13.50;99.90
45983;DHT22;31711;47.158;7.346;2023-08-06T04:44:17;13.50;99.90
45983;DHT22;31711;47.158;7.346;2023-08-06T04:46:43;13.50;99.90
45983;DHT22;31711;47.158;7.346;2023-08-06T04:49:09;13.50;99.90
45983;DHT22;31711;47.158;7.346;2023-08-06T04:51:35;13.50;99.90
45983;DHT22;31711;47.158;7.346;2023-08-06T04:54:01;13.60;99.90
45983;DHT22;31711;47.158;7.346;2023-08-06T04:56:27;13.70;99.90
45983;DHT22;31711;47.158;7.346;2023-08-06T04:58:53;13.70;99.90
45983;DHT22;31711;47.158;7.346;2023-08-06T05:01:19;13.70;99.90
45983;DHT22;31711;47.158;7.346;2023-08-06T05:03:47;13.80;99.90
45983;DHT22;31711;47.158;7.346;2023-08-06T05:06:13;13.80;99.90
45983;DHT22;31711;47.158;7.346;2023-08-06T05:08:39;13.70;99.90
45983;DHT22;31711;47.158;7.346;2023-08-06T05:11:05;13.90;99.90
45983;DHT22;31711;47.158;7.346;2023-08-06T05:13:31;14.00;99.90
45983;DHT22;31711;47.158;7.346;2023-08-06T05:15:57;14.10;99.90
45983;DHT22;31711;47.158;7.346;2023-08-06T05:18:23;14.20;99.90
45983;DHT22;31711;47.158;7.346;2023-08-06T05:20:49;14.20;99.90
45983;DHT22;31711;47.158;7.346;2023-08-06T05:23:15;14.30;99.90
45983;DHT22;31711;47.158;7.346;2023-08-06T05:25:41;14.30;99.90
45983;DHT22;31711;47.158;7.346;2023-08-06T05:28:07;14.40;99.90
45983;DHT22;31711;47.158;7.346;2023-08-06T05:30:33;14.40;99.90
45983;DHT22;31711;47.158;7.346;2023-08-06T05:32:59;14.40;99.90
45983;DHT22;31711;47.158;7.346;2023-08-06T05:35:25;14.30;99.90
45983;DHT22;31711;47.158;7.346;2023-08-06T05:37:51;14.40;99.90
45983;DHT22;31711;47.158;7.346;2023-08-06T05:40:17;14.50;99.90
45983;DHT22;31711;47.158;7.346;2023-08-06T05:42:43;14.50;99.90
45983;DHT22;31711;47.158;7.346;2023-08-06T05:45:09;14.50;99.90
45983;DHT22;31711;47.158;7.346;2023-08-06T05:47:35;14.40;99.90
45983;DHT22;31711;47.158;7.346;2023-08-06T05:50:01;14.50;99.90
45983;DHT22;31711;47.158;7.346;2023-08-06T05:52:27;14.50;99.90
45983;DHT22;31711;47.158;7.346;2023-08-06T05:54:53;14.50;99.90
45983;DHT22;31711;47.158;7.346;2023-08-06T05:57:20;14.50;99.90
45983;DHT22;31711;47.158;7.346;2023-08-06T05:59:46;14.60;99.90
45983;DHT22;31711;47.158;7.346;2023-08-06T06:02:12;14.60;99.90
45983;DHT22;31711;47.158;7.346;2023-08-06T06:04:40;14.60;99.90
45983;DHT22;31711;47.158;7.346;2023-08-06T06:07:06;14.50;99.90
45983;DHT22;31711;47.158;7.346;2023-08-06T06:09:32;14.50;99.90
45983;DHT22;31711;47.158;7.346;2023-08-06T06:11:57;14.50;99.90
45983;DHT22;31711;47.158;7.346;2023-08-06T06:14:23;14.40;99.90
45983;DHT22;31711;47.158;7.346;2023-08-06T06:16:49;14.40;99.90
45983;DHT22;31711;47.158;7.346;2023-08-06T06:19:15;14.40;99.90
45983;DHT22;31711;47.158;7.346;2023-08-06T06:21:41;14.40;99.90
45983;DHT22;31711;47.158;7.346;2023-08-06T06:24:07;14.30;99.90
45983;DHT22;31711;47.158;7.346;2023-08-06T06:26:33;14.30;99.90
45983;DHT22;31711;47.158;7.346;2023-08-06T06:28:59;14.30;99.90
45983;DHT22;31711;47.158;7.346;2023-08-06T06:31:25;14.20;99.90
45983;DHT22;31711;47.158;7.346;2023-08-06T06:33:51;14.10;99.90
45983;DHT22;31711;47.158;7.346;2023-08-06T06:36:20;14.20;99.90
45983;DHT22;31711;47.158;7.346;2023-08-06T06:38:46;14.10;99.90
45983;DHT22;31711;47.158;7.346;2023-08-06T06:41:13;14.10;99.90
45983;DHT22;31711;47.158;7.346;2023-08-06T06:43:39;13.90;99.90
45983;DHT22;31711;47.158;7.346;2023-08-06T06:46:06;13.70;99.90
45983;DHT22;31711;47.158;7.346;2023-08-06T06:48:33;13.60;99.90
45983;DHT22;31711;47.158;7.346;2023-08-06T06:50:59;13.40;99.90
45983;DHT22;31711;47.158;7.346;2023-08-06T06:53:25;13.20;99.90
45983;DHT22;31711;47.158;7.346;2023-08-06T06:55:55;13.10;99.90
45983;DHT22;31711;47.158;7.346;2023-08-06T06:58:21;13.10;99.90
45983;DHT22;31711;47.158;7.346;2023-08-06T07:00:47;13.20;99.90
45983;DHT22;31711;47.158;7.346;2023-08-06T07:03:15;13.10;99.90
45983;DHT22;31711;47.158;7.346;2023-08-06T07:05:41;13.10;99.90
45983;DHT22;31711;47.158;7.346;2023-08-06T07:08:07;13.00;99.90
45983;DHT22;31711;47.158;7.346;2023-08-06T07:10:33;13.00;99.90
45983;DHT22;31711;47.158;7.346;2023-08-06T07:12:59;13.00;99.90
45983;DHT22;31711;47.158;7.346;2023-08-06T07:15:26;13.10;99.90
45983;DHT22;31711;47.158;7.346;2023-08-06T07:17:52;13.10;99.90
45983;DHT22;31711;47.158;7.346;2023-08-06T07:20:17;13.10;99.90
45983;DHT22;31711;47.158;7.346;2023-08-06T07:22:44;13.20;99.90
45983;DHT22;31711;47.158;7.346;2023-08-06T07:25:10;13.10;99.90
45983;DHT22;31711;47.158;7.346;2023-08-06T07:27:36;13.20;99.90
45983;DHT22;31711;47.158;7.346;2023-08-06T07:30:02;13.20;99.90
45983;DHT22;31711;47.158;7.346;2023-08-06T07:32:29;13.30;99.90
45983;DHT22;31711;47.158;7.346;2023-08-06T07:34:54;13.30;99.90
45983;DHT22;31711;47.158;7.346;2023-08-06T07:37:25;13.30;99.90
45983;DHT22;31711;47.158;7.346;2023-08-06T07:39:51;13.30;99.90
45983;DHT22;31711;47.158;7.346;2023-08-06T07:42:17;13.20;99.90
45983;DHT22;31711;47.158;7.346;2023-08-06T07:44:56;13.30;99.90
45983;DHT22;31711;47.158;7.346;2023-08-06T07:47:22;13.30;99.90
45983;DHT22;31711;47.158;7.346;2023-08-06T07:49:48;13.30;99.90
45983;DHT22;31711;47.158;7.346;2023-08-06T07:52:14;13.40;99.90
45983;DHT22;31711;47.158;7.346;2023-08-06T07:54:40;13.50;99.90
45983;DHT22;31711;47.158;7.346;2023-08-06T07:57:07;13.50;99.90
45983;DHT22;31711;47.158;7.346;2023-08-06T07:59:33;13.50;99.90
45983;DHT22;31711;47.158;7.346;2023-08-06T08:01:59;13.50;99.90
45983;DHT22;31711;47.158;7.346;2023-08-06T08:04:25;13.60;99.90
45983;DHT22;31711;47.158;7.346;2023-08-06T08:06:51;13.70;99.90
45983;DHT22;31711;47.158;7.346;2023-08-06T08:09:17;13.70;99.90
45983;DHT22;31711;47.158;7.346;2023-08-06T08:11:43;14.00;99.90
45983;DHT22;31711;47.158;7.346;2023-08-06T08:14:09;14.20;99.90
45983;DHT22;31711;47.158;7.346;2023-08-06T08:16:35;14.20;99.90
45983;DHT22;31711;47.158;7.346;2023-08-06T08:19:01;14.30;99.90
45983;DHT22;31711;47.158;7.346;2023-08-06T08:21:29;14.40;99.90
45983;DHT22;31711;47.158;7.346;2023-08-06T08:23:55;14.60;99.90
45983;DHT22;31711;47.158;7.346;2023-08-06T08:26:21;14.60;99.90
45983;DHT22;31711;47.158;7.346;2023-08-06T08:28:47;14.70;99.90
45983;DHT22;31711;47.158;7.346;2023-08-06T08:31:13;14.70;99.90
45983;DHT22;31711;47.158;7.346;2023-08-06T08:33:39;14.70;99.90
45983;DHT22;31711;47.158;7.346;2023-08-06T08:36:05;14.80;99.90
45983;DHT22;31711;47.158;7.346;2023-08-06T08:38:32;14.70;99.90
45983;DHT22;31711;47.158;7.346;2023-08-06T08:40:58;14.50;99.90
45983;DHT22;31711;47.158;7.346;2023-08-06T08:43:24;14.40;99.90
45983;DHT22;31711;47.158;7.346;2023-08-06T08:45:51;14.50;99.90
45983;DHT22;31711;47.158;7.346;2023-08-06T08:48:18;14.40;99.90
45983;DHT22;31711;47.158;7.346;2023-08-06T08:50:47;14.40;99.90
45983;DHT22;31711;47.158;7.346;2023-08-06T08:53:16;14.30;99.90
45983;DHT22;31711;47.158;7.346;2023-08-06T08:55:43;14.40;99.90
45983;DHT22;31711;47.158;7.346;2023-08-06T08:58:10;14.30;99.90
45983;DHT22;31711;47.158;7.346;2023-08-06T09:00:36;14.30;99.90
45983;DHT22;31711;47.158;7.346;2023-08-06T09:03:05;14.20;99.90
45983;DHT22;31711;47.158;7.346;2023-08-06T09:05:32;14.20;99.90
45983;DHT22;31711;47.158;7.346;2023-08-06T09:08:03;14.10;99.90
45983;DHT22;31711;47.158;7.346;2023-08-06T09:10:29;14.00;99.90
45983;DHT22;31711;47.158;7.346;2023-08-06T09:12:57;13.80;99.90
45983;DHT22;31711;47.158;7.346;2023-08-06T09:15:27;13.70;99.90
45983;DHT22;31711;47.158;7.346;2023-08-06T09:17:53;13.70;99.90
45983;DHT22;31711;47.158;7.346;2023-08-06T09:20:20;13.70;99.90
45983;DHT22;31711;47.158;7.346;2023-08-06T09:22:46;13.70;99.90
45983;DHT22;31711;47.158;7.346;2023-08-06T09:25:24;13.80;99.90
45983;DHT22;31711;47.158;7.346;2023-08-06T09:27:51;13.70;99.90
45983;DHT22;31711;47.158;7.346;2023-08-06T09:30:32;13.70;99.90
45983;DHT22;31711;47.158;7.346;2023-08-06T09:32:58;13.60;99.90
45983;DHT22;31711;47.158;7.346;2023-08-06T09:35:24;13.70;99.90
45983;DHT22;31711;47.158;7.346;2023-08-06T09:37:50;13.70;99.90
45983;DHT22;31711;47.158;7.346;2023-08-06T09:40:27;13.80;99.90
45983;DHT22;31711;47.158;7.346;2023-08-06T09:42:53;13.80;99.90
45983;DHT22;31711;47.158;7.346;2023-08-06T09:45:20;13.80;99.90
45983;DHT22;31711;47.158;7.346;2023-08-06T09:47:55;13.90;99.90
45983;DHT22;31711;47.158;7.346;2023-08-06T09:50:21;13.90;99.90
45983;DHT22;31711;47.158;7.346;2023-08-06T09:52:47;13.90;99.90
45983;DHT22;31711;47.158;7.346;2023-08-06T09:55:16;14.00;99.90
45983;DHT22;31711;47.158;7.346;2023-08-06T09:57:43;14.00;99.90
45983;DHT22;31711;47.158;7.346;2023-08-06T10:00:10;14.30;99.90
45983;DHT22;31711;47.158;7.346;2023-08-06T10:02:40;14.60;99.90
45983;DHT22;31711;47.158;7.346;2023-08-06T10:05:07;14.50;99.90
45983;DHT22;31711;47.158;7.346;2023-08-06T10:07:34;14.40;99.90
45983;DHT22;31711;47.158;7.346;2023-08-06T10:10:01;14.40;99.90
45983;DHT22;31711;47.158;7.346;2023-08-06T10:12:40;14.70;99.90
45983;DHT22;31711;47.158;7.346;2023-08-06T10:15:13;14.80;99.90
45983;DHT22;31711;47.158;7.346;2023-08-06T10:17:41;15.10;99.90
45983;DHT22;31711;47.158;7.346;2023-08-06T10:20:08;15.30;99.90
45983;DHT22;31711;47.158;7.346;2023-08-06T10:22:34;15.50;99.90
45983;DHT22;31711;47.158;7.346;2023-08-06T10:25:01;15.50;99.90
45983;DHT22;31711;47.158;7.346;2023-08-06T10:27:35;15.40;99.90
45983;DHT22;31711;47.158;7.346;2023-08-06T10:30:27;15.40;99.90
45983;DHT22;31711;47.158;7.346;2023-08-06T10:32:56;15.80;99.90
45983;DHT22;31711;47.158;7.346;2023-08-06T10:35:42;15.50;99.90
45983;DHT22;31711;47.158;7.346;2023-08-06T10:38:19;15.70;99.90
45983;DHT22;31711;47.158;7.346;2023-08-06T10:41:01;15.30;99.90
45983;DHT22;31711;47.158;7.346;2023-08-06T10:43:32;15.00;99.90
45983;DHT22;31711;47.158;7.346;2023-08-06T10:46:03;14.80;99.90
45983;DHT22;31711;47.158;7.346;2023-08-06T10:48:41;14.80;99.90
45983;DHT22;31711;47.158;7.346;2023-08-06T10:51:12;14.70;99.90
45983;DHT22;31711;47.158;7.346;2023-08-06T10:53:42;14.70;99.90
45983;DHT22;31711;47.158;7.346;2023-08-06T10:56:19;14.70;99.90
45983;DHT22;31711;47.158;7.346;2023-08-06T10:58:46;14.90;99.90
45983;DHT22;31711;47.158;7.346;2023-08-06T11:01:12;14.60;99.90
45983;DHT22;31711;47.158;7.346;2023-08-06T11:03:39;14.40;99.90
45983;DHT22;31711;47.158;7.346;2023-08-06T11:06:09;14.40;99.90
45983;DHT22;31711;47.158;7.346;2023-08-06T11:08:37;14.40;99.90
45983;DHT22;31711;47.158;7.346;2023-08-06T11:11:11;14.40;99.90
45983;DHT22;31711;47.158;7.346;2023-08-06T11:13:49;14.30;99.90
45983;DHT22;31711;47.158;7.346;2023-08-06T11:16:22;14.30;99.90
45983;DHT22;31711;47.158;7.346;2023-08-06T11:18:51;14.40;99.90
45983;DHT22;31711;47.158;7.346;2023-08-06T11:21:20;14.50;99.90
45983;DHT22;31711;47.158;7.346;2023-08-06T11:23:46;14.60;99.90
45983;DHT22;31711;47.158;7.346;2023-08-06T11:26:13;14.90;99.90
45983;DHT22;31711;47.158;7.346;2023-08-06T11:28:44;15.20;99.90
45983;DHT22;31711;47.158;7.346;2023-08-06T11:31:22;15.20;99.90
45983;DHT22;31711;47.158;7.346;2023-08-06T11:33:53;15.30;99.90
45983;DHT22;31711;47.158;7.346;2023-08-06T11:36:40;15.30;99.90
45983;DHT22;31711;47.158;7.346;2023-08-06T11:39:06;15.20;99.90
45983;DHT22;31711;47.158;7.346;2023-08-06T11:41:33;15.10;99.90
45983;DHT22;31711;47.158;7.346;2023-08-06T11:43:59;15.10;99.90
45983;DHT22;31711;47.158;7.346;2023-08-06T11:46:25;15.10;99.90
45983;DHT22;31711;47.158;7.346;2023-08-06T11:48:56;15.10;99.90
45983;DHT22;31711;47.158;7.346;2023-08-06T11:51:26;15.00;99.90
45983;DHT22;31711;47.158;7.346;2023-08-06T11:53:58;15.00;99.90
45983;DHT22;31711;47.158;7.346;2023-08-06T11:56:25;15.10;99.90
45983;DHT22;31711;47.158;7.346;2023-08-06T11:58:52;15.20;99.90
45983;DHT22;31711;47.158;7.346;2023-08-06T12:01:18;15.00;99.90
45983;DHT22;31711;47.158;7.346;2023-08-06T12:03:44;14.90;99.90
45983;DHT22;31711;47.158;7.346;2023-08-06T12:06:10;14.70;99.90
45983;DHT22;31711;47.158;7.346;2023-08-06T12:08:36;14.80;99.90
45983;DHT22;31711;47.158;7.346;2023-08-06T12:11:04;14.70;99.90
45983;DHT22;31711;47.158;7.346;2023-08-06T12:13:30;14.60;99.90
45983;DHT22;31711;47.158;7.346;2023-08-06T12:15:56;14.40;99.90
45983;DHT22;31711;47.158;7.346;2023-08-06T12:18:23;14.50;99.90
45983;DHT22;31711;47.158;7.346;2023-08-06T12:20:49;14.50;99.90
45983;DHT22;31711;47.158;7.346;2023-08-06T12:23:15;14.70;99.90
45983;DHT22;31711;47.158;7.346;2023-08-06T12:25:42;14.70;99.90
45983;DHT22;31711;47.158;7.346;2023-08-06T12:28:08;14.70;99.90
45983;DHT22;31711;47.158;7.346;2023-08-06T12:30:35;14.70;99.90
45983;DHT22;31711;47.158;7.346;2023-08-06T12:33:01;14.60;99.90
45983;DHT22;31711;47.158;7.346;2023-08-06T12:35:27;14.90;99.90
45983;DHT22;31711;47.158;7.346;2023-08-06T12:37:53;15.00;99.90
45983;DHT22;31711;47.158;7.346;2023-08-06T12:40:25;15.20;99.90
45983;DHT22;31711;47.158;7.346;2023-08-06T12:42:51;15.00;99.90
45983;DHT22;31711;47.158;7.346;2023-08-06T12:45:17;15.40;99.90
45983;DHT22;31711;47.158;7.346;2023-08-06T12:47:46;15.60;99.90
45983;DHT22;31711;47.158;7.346;2023-08-06T12:50:13;15.50;99.90
45983;DHT22;31711;47.158;7.346;2023-08-06T12:52:39;15.40;99.90
45983;DHT22;31711;47.158;7.346;2023-08-06T12:55:05;15.20;99.90
45983;DHT22;31711;47.158;7.346;2023-08-06T12:57:31;15.00;99.90
45983;DHT22;31711;47.158;7.346;2023-08-06T12:59:57;15.20;99.90
45983;DHT22;31711;47.158;7.346;2023-08-06T13:02:23;15.30;99.90
45983;DHT22;31711;47.158;7.346;2023-08-06T13:04:49;15.30;99.90
45983;DHT22;31711;47.158;7.346;2023-08-06T13:07:15;15.60;99.90
45983;DHT22;31711;47.158;7.346;2023-08-06T13:09:40;16.20;99.90
45983;DHT22;31711;47.158;7.346;2023-08-06T13:12:06;16.20;99.90
45983;DHT22;31711;47.158;7.346;2023-08-06T13:14:32;16.40;99.90
45983;DHT22;31711;47.158;7.346;2023-08-06T13:16:58;16.50;99.90
45983;DHT22;31711;47.158;7.346;2023-08-06T13:19:24;16.70;99.90
45983;DHT22;31711;47.158;7.346;2023-08-06T13:24:16;17.10;99.90
45983;DHT22;31711;47.158;7.346;2023-08-06T13:26:42;16.90;99.90
45983;DHT22;31711;47.158;7.346;2023-08-06T13:29:08;16.90;99.90
45983;DHT22;31711;47.158;7.346;2023-08-06T13:31:35;16.50;99.90
45983;DHT22;31711;47.158;7.346;2023-08-06T13:34:00;16.40;99.90
45983;DHT22;31711;47.158;7.346;2023-08-06T13:36:27;16.80;99.90
45983;DHT22;31711;47.158;7.346;2023-08-06T13:38:53;16.80;99.90
45983;DHT22;31711;47.158;7.346;2023-08-06T13:41:19;16.40;99.90
45983;DHT22;31711;47.158;7.346;2023-08-06T13:43:45;16.30;99.90
45983;DHT22;31711;47.158;7.346;2023-08-06T13:46:11;16.50;99.90
45983;DHT22;31711;47.158;7.346;2023-08-06T13:48:42;16.50;99.90
45983;DHT22;31711;47.158;7.346;2023-08-06T13:51:09;16.50;99.90
45983;DHT22;31711;47.158;7.346;2023-08-06T13:53:35;16.40;99.90
45983;DHT22;31711;47.158;7.346;2023-08-06T13:56:01;16.50;99.90
45983;DHT22;31711;47.158;7.346;2023-08-06T13:58:27;16.40;99.90
45983;DHT22;31711;47.158;7.346;2023-08-06T14:00:53;16.10;99.90
45983;DHT22;31711;47.158;7.346;2023-08-06T14:03:20;16.10;99.90
45983;DHT22;31711;47.158;7.346;2023-08-06T14:05:46;16.20;99.90
45983;DHT22;31711;47.158;7.346;2023-08-06T14:08:12;16.20;99.90
45983;DHT22;31711;47.158;7.346;2023-08-06T14:10:39;16.20;99.90
45983;DHT22;31711;47.158;7.346;2023-08-06T14:13:05;16.00;99.90
45983;DHT22;31711;47.158;7.346;2023-08-06T14:15:31;15.90;99.90
45983;DHT22;31711;47.158;7.346;2023-08-06T14:17:58;15.90;99.90
45983;DHT22;31711;47.158;7.346;2023-08-06T14:20:24;15.80;99.90
45983;DHT22;31711;47.158;7.346;2023-08-06T14:22:50;15.80;99.90
45983;DHT22;31711;47.158;7.346;2023-08-06T14:25:16;15.80;99.90
45983;DHT22;31711;47.158;7.346;2023-08-06T14:27:42;15.80;99.90
45983;DHT22;31711;47.158;7.346;2023-08-06T14:30:08;15.20;99.90
45983;DHT22;31711;47.158;7.346;2023-08-06T14:32:35;15.10;99.90
45983;DHT22;31711;47.158;7.346;2023-08-06T14:35:00;14.80;99.90
45983;DHT22;31711;47.158;7.346;2023-08-06T14:37:26;14.90;99.90
45983;DHT22;31711;47.158;7.346;2023-08-06T14:39:52;14.90;99.90
45983;DHT22;31711;47.158;7.346;2023-08-06T14:42:19;14.90;99.90
45983;DHT22;31711;47.158;7.346;2023-08-06T14:44:45;15.00;99.90
45983;DHT22;31711;47.158;7.346;2023-08-06T14:47:11;15.10;99.90
45983;DHT22;31711;47.158;7.346;2023-08-06T14:49:38;15.00;99.90
45983;DHT22;31711;47.158;7.346;2023-08-06T14:52:05;15.00;99.90
45983;DHT22;31711;47.158;7.346;2023-08-06T14:54:31;15.00;99.90
45983;DHT22;31711;47.158;7.346;2023-08-06T14:56:57;15.00;99.90
45983;DHT22;31711;47.158;7.346;2023-08-06T14:59:23;15.10;99.90
45983;DHT22;31711;47.158;7.346;2023-08-06T15:01:49;15.00;99.90
45983;DHT22;31711;47.158;7.346;2023-08-06T15:04:17;14.90;99.90
45983;DHT22;31711;47.158;7.346;2023-08-06T15:06:44;14.70;99.90
45983;DHT22;31711;47.158;7.346;2023-08-06T15:09:10;14.70;99.90
45983;DHT22;31711;47.158;7.346;2023-08-06T15:11:37;14.70;99.90
45983;DHT22;31711;47.158;7.346;2023-08-06T15:14:03;14.80;99.90
45983;DHT22;31711;47.158;7.346;2023-08-06T15:16:33;14.80;99.90
45983;DHT22;31711;47.158;7.346;2023-08-06T15:19:00;14.90;99.90
45983;DHT22;31711;47.158;7.346;2023-08-06T15:21:27;14.90;99.90
45983;DHT22;31711;47.158;7.346;2023-08-06T15:23:54;15.10;99.90
45983;DHT22;31711;47.158;7.346;2023-08-06T15:26:20;15.20;99.90
45983;DHT22;31711;47.158;7.346;2023-08-06T15:28:46;15.20;99.90
45983;DHT22;31711;47.158;7.346;2023-08-06T15:31:12;15.30;99.90
45983;DHT22;31711;47.158;7.346;2023-08-06T15:33:38;15.30;99.90
45983;DHT22;31711;47.158;7.346;2023-08-06T15:36:04;15.30;99.90